Saint-Pascal, Canada
Current Conditions -  °F | °C
As of 12:23 PM on Sunday 21 Dec 2014 (Local Time) from KFVE Reporting Station
Overcast Overcast  
Wind Chill: 11°   Ceiling: 500
Heat Index: 19°   Visibility: 10mi
Dew Point: 17°   Wind: 6mph
Humidity: 92%   Direction: 190°S
Pressure: 30.3"   Gusts: NA
Location:  47.52°N, 69.82°W
Report Text: KFVE 211723Z AUTO 19005KT 10SM OVC005 M07/M08 A3030 RMK AO2 T10721083
Loading
Personal Weather Stations






























Interactive Weather Map New forecast layout! Learn more

10-Day Weather Forecast

Advertisements
Track Severe Weather on mobile